Time;durP1;ratioP1;P1;durP2;ratioP2;P2;SDS_P1;SDS_P2;PMS_P1;PMS_P2;Temp;Humidity;BMP_temperature;BMP_pressure;BME280_temperature;BME280_humidity;BME280_pressure;Samples;Min_cycle;Max_cycle;Signal;HPM_P1;HPM_P2
2023/12/23 00:09:30;;;;;;;2.70;0.75;;;;;;;16.17;57.49;100255.31;20849931;28;20049;-69
2023/12/23 00:19:31;;;;;;;1.98;0.70;;;;;;;16.11;57.61;100262.06;20832252;28;20068;-70
2023/12/23 00:29:33;;;;;;;3.20;0.95;;;;;;;16.11;57.38;100242.44;20852641;28;20055;-70
2023/12/23 00:39:35;;;;;;;4.05;0.82;;;;;;;16.06;57.17;100246.41;20831496;28;20049;-70
2023/12/23 00:49:37;;;;;;;1.63;0.73;;;;;;;16.05;57.33;100259.94;20832402;28;20061;-70
2023/12/23 00:59:40;;;;;;;2.60;0.90;;;;;;;16.05;57.15;100257.28;20862755;28;20056;-70
2023/12/23 01:09:41;;;;;;;3.40;0.98;;;;;;;16.04;57.18;100239.47;20848406;28;20053;-69
2023/12/23 01:19:43;;;;;;;2.88;0.90;;;;;;;16.11;56.78;100240.59;20818503;28;20080;-69
2023/12/23 01:29:45;;;;;;;3.17;0.90;;;;;;;16.20;56.60;100233.53;20838837;28;20579;-70
2023/12/23 01:39:47;;;;;;;3.03;1.00;;;;;;;16.27;56.54;100229.28;20846183;28;20553;-70
2023/12/23 01:49:49;;;;;;;3.88;1.00;;;;;;;16.33;56.23;100222.50;20848834;28;20053;-69
2023/12/23 01:59:51;;;;;;;2.30;0.77;;;;;;;16.37;55.98;100210.50;20849374;28;20182;-70
2023/12/23 02:09:53;;;;;;;3.60;0.95;;;;;;;16.44;55.78;100206.22;20844602;28;20060;-70
2023/12/23 02:19:55;;;;;;;4.03;1.02;;;;;;;16.47;55.66;100197.88;20837145;28;20875;-69
2023/12/23 02:29:59;;;;;;;3.90;0.95;;;;;;;16.50;55.37;100194.91;20827181;28;20056;-69
2023/12/23 02:40:00;;;;;;;2.63;0.68;;;;;;;16.52;55.56;100211.72;20831539;28;20049;-69
2023/12/23 02:50:02;;;;;;;3.42;1.00;;;;;;;16.58;55.35;100188.81;20823986;28;20415;-69
2023/12/23 03:00:06;;;;;;;4.05;1.10;;;;;;;16.63;55.29;100174.97;20840284;28;20055;-69
2023/12/23 03:10:07;;;;;;;2.38;0.82;;;;;;;16.64;55.25;100166.72;20842163;28;20052;-70
2023/12/23 03:20:09;;;;;;;2.40;0.70;;;;;;;16.65;55.32;100168.44;20851844;28;20551;-70
2023/12/23 03:30:12;;;;;;;2.70;1.02;;;;;;;16.68;55.47;100152.00;20861814;28;20064;-70
2023/12/23 03:40:14;;;;;;;2.88;0.90;;;;;;;16.71;55.61;100115.06;20843339;28;20045;-69
2023/12/23 03:50:15;;;;;;;2.10;0.70;;;;;;;16.74;55.57;100082.53;20859895;28;20138;-69
2023/12/23 04:00:18;;;;;;;3.13;1.40;;;;;;;16.78;55.73;100052.53;20834895;28;20068;-70
2023/12/23 04:10:20;;;;;;;1.58;0.85;;;;;;;16.80;55.65;100041.63;20816673;28;20069;-70
2023/12/23 04:20:22;;;;;;;1.85;0.63;;;;;;;16.80;55.88;100009.38;20833291;28;20049;-70
2023/12/23 04:30:24;;;;;;;1.83;0.68;;;;;;;16.84;55.59;100005.38;20825524;28;20045;-70
2023/12/23 04:40:26;;;;;;;1.50;0.45;;;;;;;16.87;55.85;99972.81;20841821;28;20153;-70
2023/12/23 04:50:28;;;;;;;1.75;0.43;;;;;;;16.85;55.94;99939.88;20826895;28;20382;-70
2023/12/23 05:00:30;;;;;;;1.17;0.40;;;;;;;16.78;56.21;99919.97;20826163;28;20048;-69
2023/12/23 05:10:32;;;;;;;1.85;0.50;;;;;;;16.74;56.29;99905.13;20832829;28;20947;-69
2023/12/23 05:20:34;;;;;;;1.55;0.50;;;;;;;16.79;56.38;99878.63;20841868;28;20525;-70
2023/12/23 05:30:36;;;;;;;0.70;0.30;;;;;;;16.73;56.46;99837.13;20823635;28;20421;-70
2023/12/23 05:40:39;;;;;;;0.50;0.28;;;;;;;16.72;56.65;99823.81;20846403;28;20308;-70
2023/12/23 05:50:41;;;;;;;0.93;0.40;;;;;;;16.70;56.69;99799.81;20835403;28;20049;-70
2023/12/23 06:00:42;;;;;;;0.50;0.30;;;;;;;16.68;56.83;99783.81;20831764;28;20126;-70
2023/12/23 06:10:44;;;;;;;0.50;0.30;;;;;;;16.66;56.98;99777.75;20831612;28;20516;-70
2023/12/23 06:20:58;;;;;;;0.57;0.20;;;;;;;16.65;56.94;99775.25;20833698;28;20048;-69
2023/12/23 06:31:00;;;;;;;0.25;0.13;;;;;;;16.63;57.14;99753.88;20833913;28;20064;-69
2023/12/23 06:41:04;;;;;;;0.35;0.22;;;;;;;16.61;57.28;99758.56;20812136;28;20041;-70
2023/12/23 06:51:07;;;;;;;0.30;0.20;;;;;;;16.70;57.32;99753.25;20837989;28;20056;-70
2023/12/23 07:01:08;;;;;;;0.52;0.15;;;;;;;16.84;56.77;99778.72;20823297;28;20056;-70
2023/12/23 07:11:10;;;;;;;0.28;0.10;;;;;;;17.09;56.25;99793.22;20841852;28;20052;-70
2023/12/23 07:21:12;;;;;;;0.20;0.10;;;;;;;17.18;55.65;99792.25;20843635;28;20049;-70
2023/12/23 07:31:14;;;;;;;0.10;0.10;;;;;;;17.22;55.84;99807.06;20835294;28;20154;-70
2023/12/23 07:41:16;;;;;;;0.10;0.10;;;;;;;17.24;55.62;99818.56;20834718;28;20067;-70
2023/12/23 07:51:19;;;;;;;0.40;0.10;;;;;;;17.06;55.57;99815.91;20835994;28;20055;-70
2023/12/23 08:01:21;;;;;;;0.20;0.20;;;;;;;17.24;55.57;99852.66;20856762;28;20052;-70
2023/12/23 08:11:23;;;;;;;0.08;0.08;;;;;;;17.23;55.39;99864.41;20841953;28;20128;-70
2023/12/23 08:21:25;;;;;;;0.20;0.10;;;;;;;17.19;55.49;99880.00;20816620;28;20072;-69
2023/12/23 08:31:27;;;;;;;0.08;0.00;;;;;;;17.17;55.45;99887.41;20840471;28;20084;-69
2023/12/23 08:41:28;;;;;;;0.25;0.03;;;;;;;17.13;55.30;99912.91;20820781;28;20053;-70
2023/12/23 08:51:33;;;;;;;0.10;0.10;;;;;;;17.10;55.31;99905.16;20821899;28;20045;-70
2023/12/23 09:01:34;;;;;;;0.20;0.10;;;;;;;17.04;55.39;99925.47;20829376;28;20045;-69
2023/12/23 09:11:43;;;;;;;0.13;0.10;;;;;;;16.85;55.75;99910.31;20831568;28;20099;-70
2023/12/23 09:21:45;;;;;;;0.20;0.10;;;;;;;17.03;55.77;99933.69;20840399;28;20087;-69
2023/12/23 09:31:47;;;;;;;0.10;0.10;;;;;;;17.25;55.76;99949.34;20819169;28;20138;-67
2023/12/23 09:41:48;;;;;;;0.17;0.17;;;;;;;17.56;55.04;99948.06;20830254;28;20183;-67
2023/12/23 09:51:50;;;;;;;0.08;0.08;;;;;;;17.80;54.46;99958.16;20828809;28;20049;-67
2023/12/23 10:01:54;;;;;;;0.52;0.10;;;;;;;17.97;53.97;99964.47;20818945;28;20160;-67
2023/12/23 10:11:56;;;;;;;0.10;0.10;;;;;;;18.08;53.62;99962.53;20821587;28;20150;-67
2023/12/23 10:21:59;;;;;;;0.17;0.10;;;;;;;18.15;53.27;99954.66;20872626;28;20079;-67
2023/12/23 10:32:06;;;;;;;0.20;0.13;;;;;;;18.17;53.13;99955.34;20856745;28;20372;-67
2023/12/23 10:42:09;;;;;;;0.10;0.10;;;;;;;18.27;53.00;99967.66;20873329;28;20051;-67
2023/12/23 10:52:13;;;;;;;0.40;0.40;;;;;;;18.33;52.92;99952.72;20871688;28;20107;-67
2023/12/23 11:02:23;;;;;;;0.30;0.15;;;;;;;18.35;52.92;99949.88;20872564;28;20049;-67
2023/12/23 11:12:25;;;;;;;0.65;0.20;;;;;;;18.36;52.94;99952.38;20855388;28;20424;-67
2023/12/23 11:22:28;;;;;;;0.20;0.20;;;;;;;18.36;53.39;99941.59;20872445;28;20048;-67
2023/12/23 11:32:41;;;;;;;0.35;0.20;;;;;;;18.37;53.63;99950.56;20880094;28;20056;-67
2023/12/23 11:42:44;;;;;;;1.13;0.40;;;;;;;18.40;53.84;99945.66;20821462;28;20073;-67
2023/12/23 11:52:46;;;;;;;0.98;0.40;;;;;;;18.40;54.04;99940.28;20804158;28;20053;-67
2023/12/23 12:02:48;;;;;;;0.60;0.40;;;;;;;18.44;54.21;99954.28;20802733;28;20456;-67
2023/12/23 12:12:50;;;;;;;1.42;0.40;;;;;;;18.45;54.46;99950.56;20802856;28;20053;-67
2023/12/23 12:22:52;;;;;;;1.90;0.85;;;;;;;18.46;54.80;99952.25;20816620;28;20131;-67
2023/12/23 12:32:57;;;;;;;1.30;0.52;;;;;;;18.49;54.74;99967.25;20829162;28;20118;-67
2023/12/23 12:43:05;;;;;;;0.87;0.40;;;;;;;18.51;54.99;99976.00;20836442;28;20083;-67
2023/12/23 12:53:07;;;;;;;1.48;0.57;;;;;;;18.51;55.01;99987.66;20857395;28;20055;-67
2023/12/23 13:03:11;;;;;;;2.78;0.60;;;;;;;18.52;55.05;99985.78;20839051;28;20198;-67
2023/12/23 13:13:14;;;;;;;1.93;0.73;;;;;;;18.51;55.65;100000.28;20856659;28;20492;-67
2023/12/23 13:23:16;;;;;;;2.25;0.65;;;;;;;18.50;55.44;100002.13;20842729;28;20315;-67
2023/12/23 13:33:18;;;;;;;1.83;0.70;;;;;;;18.48;55.88;100000.59;20851571;28;20475;-67
2023/12/23 13:43:20;;;;;;;3.10;1.27;;;;;;;18.48;56.42;100009.53;20845224;28;20052;-66
2023/12/23 13:53:21;;;;;;;2.00;0.68;;;;;;;18.51;55.93;100014.59;20843427;28;20053;-67
2023/12/23 14:03:23;;;;;;;2.70;0.70;;;;;;;18.55;56.33;100025.88;20839022;28;20059;-67
2023/12/23 14:13:25;;;;;;;2.22;0.73;;;;;;;18.54;56.35;100019.66;20831996;28;20398;-67
2023/12/23 14:23:27;;;;;;;2.63;0.75;;;;;;;18.56;56.32;100059.94;20846839;28;20402;-67
2023/12/23 14:33:31;;;;;;;2.38;0.85;;;;;;;18.53;56.33;100076.41;20824748;28;20080;-67
2023/12/23 14:43:39;;;;;;;2.50;0.60;;;;;;;18.27;56.72;100061.13;20854271;28;20409;-68
2023/12/23 14:53:41;;;;;;;2.58;1.38;;;;;;;18.36;56.88;100080.91;20834158;28;20075;-67
2023/12/23 15:03:43;;;;;;;6.95;1.48;;;;;;;18.43;58.01;100102.66;20813256;28;20145;-69
2023/12/23 15:13:45;;;;;;;1.20;0.43;;;;;;;18.58;58.40;100094.81;20805356;28;20049;-66
2023/12/23 15:23:47;;;;;;;2.40;0.75;;;;;;;18.75;59.00;100101.13;20845827;28;20061;-66
2023/12/23 15:33:49;;;;;;;1.60;0.60;;;;;;;18.87;59.55;100101.69;20803725;28;20505;-68
2023/12/23 15:43:50;;;;;;;2.60;0.77;;;;;;;18.97;59.35;100122.16;20803393;28;20056;-66
2023/12/23 15:53:52;;;;;;;2.05;0.82;;;;;;;19.05;59.09;100115.13;20793812;28;20053;-67
2023/12/23 16:03:54;;;;;;;2.47;0.90;;;;;;;19.25;58.26;100113.00;20816914;28;20117;-65
2023/12/23 16:13:56;;;;;;;3.75;1.00;;;;;;;19.39;58.02;100124.97;20809204;28;20053;-66
2023/12/23 16:24:00;;;;;;;2.55;0.70;;;;;;;19.45;58.08;100102.75;20802061;28;20045;-66
2023/12/23 16:34:01;;;;;;;1.25;0.60;;;;;;;19.46;58.16;100114.38;20803424;28;20053;-65
2023/12/23 16:44:04;;;;;;;3.78;0.68;;;;;;;19.52;58.25;100109.16;20813113;28;20059;-71
2023/12/23 16:54:05;;;;;;;1.63;0.55;;;;;;;19.57;58.11;100116.75;20814526;28;20695;-71
2023/12/23 17:04:07;;;;;;;4.75;1.27;;;;;;;19.56;59.51;100121.31;20804420;28;20128;-67
2023/12/23 17:14:09;;;;;;;8.45;3.00;;;;;;;19.50;64.24;100105.78;20809206;28;20049;-66
2023/12/23 17:24:11;;;;;;;4.50;1.70;;;;;;;19.42;65.05;100093.13;20808685;28;20052;-67
2023/12/23 17:34:13;;;;;;;3.97;1.30;;;;;;;19.44;67.46;100105.59;20792359;28;20147;-69
2023/12/23 17:44:15;;;;;;;3.13;1.00;;;;;;;19.47;66.27;100108.81;20812637;28;20420;-66
2023/12/23 17:54:17;;;;;;;4.80;1.42;;;;;;;19.47;64.79;100114.22;20822436;28;20052;-69
2023/12/23 18:04:18;;;;;;;3.30;0.93;;;;;;;19.58;63.75;100112.22;20803168;28;20060;-69
2023/12/23 18:14:20;;;;;;;2.22;0.73;;;;;;;19.42;63.63;100106.63;20824477;28;20071;-70
2023/12/23 18:24:22;;;;;;;2.13;0.70;;;;;;;19.42;63.28;100125.50;20812120;28;20055;-68
2023/12/23 18:34:24;;;;;;;2.83;0.80;;;;;;;19.39;63.59;100120.44;20818372;28;20064;-67
2023/12/23 18:44:26;;;;;;;2.15;0.70;;;;;;;19.45;62.85;100118.09;20791530;28;20144;-67
2023/12/23 18:54:28;;;;;;;0.50;0.40;;;;;;;19.47;62.33;100122.31;20817402;28;20203;-68
2023/12/23 19:04:30;;;;;;;1.55;0.60;;;;;;;19.46;62.44;100104.44;20792710;28;20131;-67
2023/12/23 19:14:32;;;;;;;1.17;0.55;;;;;;;19.41;62.27;100107.63;20812029;28;20493;-68
2023/12/23 19:24:34;;;;;;;1.67;0.63;;;;;;;19.22;62.16;100092.56;20827597;28;20507;-68
2023/12/23 19:34:36;;;;;;;2.85;0.90;;;;;;;19.26;62.38;100115.50;20824896;28;20056;-67
2023/12/23 19:44:37;;;;;;;1.95;0.70;;;;;;;19.17;62.56;100105.72;20839282;28;20493;-67
2023/12/23 19:54:39;;;;;;;2.17;0.80;;;;;;;19.11;62.44;100095.59;20813609;28;20053;-68
2023/12/23 20:04:41;;;;;;;1.65;1.00;;;;;;;19.06;62.29;100090.66;20841665;28;20045;-68
2023/12/23 20:14:43;;;;;;;2.58;0.73;;;;;;;19.01;62.33;100097.56;20820758;28;20479;-68
2023/12/23 20:24:44;;;;;;;1.73;0.73;;;;;;;18.98;62.24;100101.44;20841535;28;20049;-68
2023/12/23 20:34:46;;;;;;;2.90;0.88;;;;;;;18.91;62.14;100105.75;20844078;28;20081;-67
2023/12/23 20:44:48;;;;;;;2.70;0.77;;;;;;;18.83;62.25;100103.88;20841908;28;20110;-67
2023/12/23 20:54:50;;;;;;;5.70;1.70;;;;;;;18.73;67.08;100092.38;20859030;28;20057;-68
2023/12/23 21:04:51;;;;;;;3.85;1.40;;;;;;;18.66;67.23;100090.31;20825236;28;20049;-68
2023/12/23 21:14:53;;;;;;;3.35;1.00;;;;;;;18.67;66.72;100092.00;20849758;28;20110;-68
2023/12/23 21:24:56;;;;;;;2.40;1.02;;;;;;;18.67;66.49;100077.66;20845134;28;20193;-68
2023/12/23 21:34:57;;;;;;;2.45;0.98;;;;;;;18.72;65.89;100061.03;20827126;28;20045;-68
2023/12/23 21:44:59;;;;;;;3.33;1.23;;;;;;;18.61;66.19;100056.75;20830558;28;20141;-68
2023/12/23 21:55:01;;;;;;;2.65;1.00;;;;;;;18.52;66.14;100058.56;20828202;28;20053;-68
2023/12/23 22:05:03;;;;;;;2.50;1.10;;;;;;;18.50;66.05;100058.72;20806331;28;20069;-68
2023/12/23 22:15:06;;;;;;;3.42;1.00;;;;;;;18.48;65.97;100062.59;20828533;28;20382;-68
2023/12/23 22:25:09;;;;;;;2.78;0.93;;;;;;;18.46;65.77;100065.47;20838220;28;20061;-68
2023/12/23 22:35:11;;;;;;;2.58;1.33;;;;;;;18.45;65.60;100073.69;20802360;28;20512;-68
2023/12/23 22:45:14;;;;;;;2.88;1.13;;;;;;;18.43;65.33;100065.78;20823101;28;20084;-68
2023/12/23 22:55:15;;;;;;;2.05;1.02;;;;;;;18.41;65.00;100070.50;20822616;28;20482;-68
2023/12/23 23:05:17;;;;;;;2.70;0.98;;;;;;;18.39;65.10;100059.84;20858708;28;20076;-68
2023/12/23 23:15:19;;;;;;;2.28;0.82;;;;;;;18.38;64.84;100060.03;20830989;28;20045;-68
2023/12/23 23:25:21;;;;;;;2.08;0.70;;;;;;;18.40;64.54;100061.53;20851345;28;20049;-68
2023/12/23 23:35:22;;;;;;;2.95;0.90;;;;;;;18.43;64.25;100049.59;20852542;28;20401;-69
2023/12/23 23:45:24;;;;;;;2.33;0.98;;;;;;;18.43;64.15;100060.38;20859038;28;21054;-68
2023/12/23 23:55:26;;;;;;;2.55;0.80;;;;;;;18.44;63.95;100056.69;20847204;28;20053;-68
